createdAt,value
2023-01-19T00:01:37.843Z,98969.53
2023-01-19T00:04:06.524Z,98970.22
2023-01-19T00:06:34.455Z,98974.53
2023-01-19T00:09:03.000Z,98975.84
2023-01-19T00:11:30.739Z,98963.38
2023-01-19T00:13:58.775Z,98964.22
2023-01-19T00:16:28.212Z,98965.84
2023-01-19T00:18:56.132Z,98974.19
2023-01-19T00:21:24.543Z,98979.31
2023-01-19T00:23:52.818Z,98982.88
2023-01-19T00:26:22.178Z,98982.78
2023-01-19T00:28:50.268Z,98986.75
2023-01-19T00:31:21.587Z,98995.56
2023-01-19T00:33:52.769Z,99008.81
2023-01-19T00:36:20.832Z,99003.25
2023-01-19T00:38:48.673Z,99008.75
2023-01-19T00:41:16.715Z,99004.81
2023-01-19T00:43:44.882Z,99006.00
2023-01-19T00:46:12.755Z,99000.09
2023-01-19T00:48:40.618Z,99006.16
2023-01-19T00:51:09.725Z,98997.06
2023-01-19T00:53:37.509Z,99000.53
2023-01-19T00:56:09.018Z,99000.72
2023-01-19T00:58:38.019Z,99004.97
2023-01-19T01:01:06.056Z,99000.72
2023-01-19T01:03:33.931Z,99009.41
2023-01-19T01:06:03.567Z,99008.66
2023-01-19T01:08:33.300Z,98997.94
2023-01-19T01:11:02.100Z,99000.41
2023-01-19T01:13:30.344Z,98999.34
2023-01-19T01:15:58.477Z,98997.66
2023-01-19T01:18:26.411Z,99009.53
2023-01-19T01:21:01.202Z,99010.22
2023-01-19T01:23:29.305Z,99014.63
2023-01-19T01:25:58.485Z,99021.19
2023-01-19T01:28:27.040Z,99027.16
2023-01-19T01:30:56.037Z,99022.88
2023-01-19T01:33:40.624Z,99015.78
2023-01-19T01:36:11.685Z,99012.59
2023-01-19T01:38:40.821Z,99022.63
2023-01-19T01:41:10.030Z,99012.97
2023-01-19T01:43:48.080Z,99010.44
2023-01-19T01:46:17.905Z,99008.25
2023-01-19T01:48:54.839Z,99015.53
2023-01-19T01:51:28.465Z,99016.38
2023-01-19T01:54:14.033Z,99015.72
2023-01-19T01:56:46.551Z,98997.06
2023-01-19T01:59:25.928Z,99002.34
2023-01-19T02:02:15.848Z,98997.06
2023-01-19T02:04:49.087Z,99000.63
2023-01-19T02:07:46.050Z,98996.38
2023-01-19T02:10:32.445Z,98995.31
2023-01-19T02:13:21.780Z,98996.44
2023-01-19T02:15:52.908Z,98993.88
2023-01-19T02:18:24.082Z,98989.63
2023-01-19T02:21:05.779Z,98991.44
2023-01-19T02:23:46.075Z,99008.47
2023-01-19T02:26:19.353Z,98999.00
2023-01-19T02:28:53.258Z,99004.50
2023-01-19T02:31:21.338Z,99000.44
2023-01-19T02:33:49.469Z,99007.75
2023-01-19T02:36:23.080Z,99004.00
2023-01-19T02:38:56.600Z,99006.91
2023-01-19T02:41:34.213Z,98994.53
2023-01-19T02:44:04.532Z,98996.88
2023-01-19T02:46:33.321Z,98999.19
2023-01-19T02:49:01.528Z,98995.72
2023-01-19T02:51:29.476Z,98996.28
2023-01-19T02:54:18.337Z,98985.03
2023-01-19T02:57:12.930Z,98986.88
2023-01-19T02:59:58.478Z,98986.66
2023-01-19T03:02:43.106Z,98991.75
2023-01-19T03:05:36.450Z,98992.97
2023-01-19T03:08:16.003Z,98985.53
2023-01-19T03:10:57.889Z,98979.97
2023-01-19T03:13:37.236Z,98985.03
2023-01-19T03:16:14.532Z,98983.34
2023-01-19T03:18:49.549Z,98986.81
2023-01-19T03:21:22.343Z,98978.03
2023-01-19T03:23:55.255Z,98988.25
2023-01-19T03:26:30.661Z,98986.31
2023-01-19T03:29:03.404Z,98988.25
2023-01-19T03:31:33.766Z,98988.44
2023-01-19T03:34:08.084Z,98983.31
2023-01-19T03:36:43.320Z,98990.88
2023-01-19T03:39:15.115Z,98984.09
2023-01-19T03:41:50.200Z,98983.34
2023-01-19T03:44:18.504Z,98988.78
2023-01-19T03:46:47.995Z,98988.88
2023-01-19T03:49:16.734Z,98985.28
2023-01-19T03:51:45.210Z,98978.72
2023-01-19T03:54:12.976Z,98982.00
2023-01-19T03:56:40.871Z,98986.00
2023-01-19T03:59:10.081Z,98985.28
2023-01-19T04:01:38.002Z,98985.19
2023-01-19T04:04:06.027Z,98993.00
2023-01-19T04:06:33.794Z,98983.69
2023-01-19T04:09:01.667Z,98994.06
2023-01-19T04:11:29.879Z,98978.53
2023-01-19T04:13:57.904Z,98982.47
2023-01-19T04:16:27.291Z,98978.44
2023-01-19T04:18:55.632Z,98982.22
2023-01-19T04:21:23.388Z,98984.56
2023-01-19T04:23:53.067Z,98982.50
2023-01-19T04:26:21.115Z,98977.31
2023-01-19T04:28:48.949Z,98979.16
2023-01-19T04:31:16.824Z,98972.28
2023-01-19T04:33:45.957Z,98974.47
2023-01-19T04:36:13.709Z,98972.09
2023-01-19T04:38:41.727Z,98971.16
2023-01-19T04:41:09.853Z,98973.63
2023-01-19T04:43:37.766Z,98970.38
2023-01-19T04:46:05.785Z,98971.91
2023-01-19T04:48:33.842Z,98971.81
2023-01-19T04:51:03.335Z,98980.06
2023-01-19T04:53:31.189Z,98971.03
2023-01-19T04:56:00.625Z,98974.75
2023-01-19T04:58:28.361Z,98976.25
2023-01-19T05:00:56.215Z,98976.06
2023-01-19T05:03:25.685Z,98975.22
2023-01-19T05:05:54.391Z,98979.31
2023-01-19T05:08:24.493Z,98986.16
2023-01-19T05:10:52.318Z,98982.75
2023-01-19T05:13:20.257Z,98978.59
2023-01-19T05:15:48.068Z,98975.59
2023-01-19T05:18:16.103Z,98980.84
2023-01-19T05:20:43.838Z,98977.56
2023-01-19T05:23:11.781Z,98982.78
2023-01-19T05:25:42.910Z,98976.06
2023-01-19T05:28:11.367Z,98985.63
2023-01-19T05:30:39.395Z,98988.25
2023-01-19T05:33:07.142Z,98987.09
2023-01-19T05:35:36.649Z,99000.09
2023-01-19T05:38:04.593Z,99001.81
2023-01-19T05:40:32.455Z,99002.47
2023-01-19T05:43:05.118Z,98999.09
2023-01-19T05:45:34.110Z,99000.19
2023-01-19T05:48:02.295Z,98994.97
2023-01-19T05:50:30.151Z,98989.88
2023-01-19T05:52:59.064Z,98998.31
2023-01-19T05:55:28.840Z,98995.72
2023-01-19T05:57:56.563Z,99003.66
2023-01-19T06:00:27.466Z,99003.56
2023-01-19T06:02:55.334Z,98998.47
2023-01-19T06:05:23.060Z,98998.22
2023-01-19T06:07:50.768Z,99005.41
2023-01-19T06:10:18.692Z,99010.19
2023-01-19T06:12:46.438Z,99013.13
2023-01-19T06:15:15.321Z,99015.50
2023-01-19T06:17:44.569Z,99018.75
2023-01-19T06:20:15.973Z,99021.94
2023-01-19T06:22:43.949Z,99020.97
2023-01-19T06:25:11.939Z,99027.69
2023-01-19T06:27:45.204Z,99025.28
2023-01-19T06:30:13.964Z,99035.16
2023-01-19T06:32:41.869Z,99035.38
2023-01-19T06:35:12.174Z,99031.94
2023-01-19T06:37:41.508Z,99024.31
2023-01-19T06:40:13.618Z,99033.19
2023-01-19T06:42:42.641Z,99034.31
2023-01-19T06:45:11.201Z,99033.44
2023-01-19T06:47:39.099Z,99029.97
2023-01-19T06:50:08.237Z,99034.09
2023-01-19T06:52:42.293Z,99038.56
2023-01-19T06:55:11.148Z,99041.97
2023-01-19T06:57:40.459Z,99045.75
2023-01-19T07:00:11.721Z,99053.19
2023-01-19T07:02:42.889Z,99060.16
2023-01-19T07:05:14.209Z,99065.00
2023-01-19T07:07:44.830Z,99060.91
2023-01-19T07:10:15.689Z,99075.56
2023-01-19T07:12:46.396Z,99075.97
2023-01-19T07:15:15.426Z,99080.44
2023-01-19T07:17:43.586Z,99080.69
2023-01-19T07:20:14.296Z,99090.53
2023-01-19T07:22:45.649Z,99087.53
2023-01-19T07:25:14.676Z,99095.75
2023-01-19T07:27:42.792Z,99102.63
2023-01-19T07:30:11.756Z,99102.63
2023-01-19T07:32:39.524Z,99107.84
2023-01-19T07:35:08.303Z,99118.19
2023-01-19T07:37:37.529Z,99120.63
2023-01-19T07:40:08.854Z,99123.94
2023-01-19T07:42:36.775Z,99130.66
2023-01-19T07:45:05.903Z,99130.50
2023-01-19T07:47:35.054Z,99134.56
2023-01-19T07:50:03.345Z,99144.19
2023-01-19T07:52:31.201Z,99149.66
2023-01-19T07:54:59.211Z,99154.06
2023-01-19T07:57:28.602Z,99162.44
2023-01-19T07:59:56.670Z,99161.50
2023-01-19T08:02:24.537Z,99165.63
2023-01-19T08:04:52.440Z,99176.94
2023-01-19T08:07:20.360Z,99182.28
2023-01-19T08:09:48.179Z,99194.88
2023-01-19T08:12:17.079Z,99187.63
2023-01-19T08:14:46.168Z,99198.09
2023-01-19T08:17:14.078Z,99201.59
2023-01-19T08:19:42.975Z,99205.16
2023-01-19T08:22:10.951Z,99210.16
2023-01-19T08:24:38.674Z,99210.97
2023-01-19T08:27:06.992Z,99210.53
2023-01-19T08:29:35.000Z,99220.97
2023-01-19T08:32:06.668Z,99214.34
2023-01-19T08:34:34.632Z,99214.13
2023-01-19T08:37:02.427Z,99229.69
2023-01-19T08:39:30.426Z,99231.63
2023-01-19T08:41:59.618Z,99237.00
2023-01-19T08:44:27.745Z,99244.06
2023-01-19T08:46:55.723Z,99244.19
2023-01-19T08:49:24.964Z,99258.84
2023-01-19T08:51:52.753Z,99268.03
2023-01-19T08:54:21.727Z,99266.00
2023-01-19T08:56:49.553Z,99270.28
2023-01-19T08:59:17.868Z,99269.31
2023-01-19T09:01:45.782Z,99280.81
2023-01-19T09:04:13.697Z,99284.47
2023-01-19T09:06:42.841Z,99284.34
2023-01-19T09:09:10.676Z,99282.63
2023-01-19T09:11:38.458Z,99294.28
2023-01-19T09:14:06.509Z,99292.91
2023-01-19T09:16:34.374Z,99303.81
2023-01-19T09:19:02.302Z,99308.19
2023-01-19T09:21:30.160Z,99306.38
2023-01-19T09:23:59.348Z,99307.44
2023-01-19T09:26:27.207Z,99321.28
2023-01-19T09:28:54.987Z,99322.91
2023-01-19T09:31:23.644Z,99317.25
2023-01-19T09:33:51.581Z,99321.78
2023-01-19T09:36:19.346Z,99329.63
2023-01-19T09:38:47.212Z,99333.00
2023-01-19T09:41:22.168Z,99345.09
2023-01-19T09:43:57.862Z,99346.03
2023-01-19T09:46:36.968Z,99346.16
2023-01-19T09:49:13.680Z,99343.91
2023-01-19T09:51:46.968Z,99351.13
2023-01-19T09:54:18.152Z,99353.81
2023-01-19T09:56:52.362Z,99352.00
2023-01-19T09:59:25.137Z,99362.19
2023-01-19T10:02:19.309Z,99360.69
2023-01-19T10:04:59.931Z,99359.25
2023-01-19T10:07:44.938Z,99366.94
2023-01-19T10:10:20.991Z,99354.91
2023-01-19T10:13:21.534Z,99372.66
2023-01-19T10:16:03.911Z,99368.72
2023-01-19T10:18:47.474Z,99373.81
2023-01-19T10:21:21.553Z,99372.38
2023-01-19T10:23:54.610Z,99380.50
2023-01-19T10:26:26.391Z,99378.66
2023-01-19T10:29:02.546Z,99379.19
2023-01-19T10:31:35.779Z,99387.44
2023-01-19T10:34:03.951Z,99390.81
2023-01-19T10:36:37.505Z,99393.22
2023-01-19T10:39:06.940Z,99396.19
2023-01-19T10:41:42.187Z,99392.78
2023-01-19T10:44:12.027Z,99399.94
2023-01-19T10:46:44.904Z,99396.50
2023-01-19T10:49:27.641Z,99405.59
2023-01-19T10:51:58.229Z,99403.22
2023-01-19T10:54:29.521Z,99397.16
2023-01-19T10:57:01.231Z,99400.53
2023-01-19T10:59:37.332Z,99399.88
2023-01-19T11:02:19.337Z,99404.19
2023-01-19T11:04:50.188Z,99412.13
2023-01-19T11:07:22.659Z,99406.63
2023-01-19T11:10:22.963Z,99402.78
2023-01-19T11:13:03.675Z,99408.84
2023-01-19T11:15:40.868Z,99413.78
2023-01-19T11:18:21.431Z,99411.78
2023-01-19T11:20:53.854Z,99414.59
2023-01-19T11:23:28.151Z,99409.72
2023-01-19T11:26:00.494Z,99420.16
2023-01-19T11:28:33.959Z,99423.09
2023-01-19T11:31:18.891Z,99414.66
2023-01-19T11:33:51.692Z,99417.41
2023-01-19T11:36:22.818Z,99415.78
2023-01-19T11:38:53.514Z,99417.88
2023-01-19T11:41:26.896Z,99419.19
2023-01-19T11:44:04.804Z,99416.41
2023-01-19T11:46:40.485Z,99411.75
2023-01-19T11:49:17.255Z,99417.44
2023-01-19T11:51:52.275Z,99410.13
2023-01-19T11:54:29.527Z,99416.47
2023-01-19T11:57:00.539Z,99420.19
2023-01-19T11:59:28.775Z,99418.16
2023-01-19T12:02:02.320Z,99417.56
2023-01-19T12:04:36.325Z,99406.31
2023-01-19T12:07:12.277Z,99400.69
2023-01-19T12:09:47.397Z,99407.84
2023-01-19T12:12:28.280Z,99409.91
2023-01-19T12:15:05.114Z,99412.22
2023-01-19T12:17:40.863Z,99407.19
2023-01-19T12:20:24.750Z,99407.41
2023-01-19T12:23:09.170Z,99408.50
2023-01-19T12:25:58.185Z,99412.59
2023-01-19T12:28:32.649Z,99414.69
2023-01-19T12:31:01.961Z,99414.53
2023-01-19T12:33:37.719Z,99414.28
2023-01-19T12:36:35.481Z,99417.63
2023-01-19T12:39:11.352Z,99418.91
2023-01-19T12:41:41.077Z,99419.34
2023-01-19T12:44:30.416Z,99415.44
2023-01-19T12:47:05.194Z,99421.16
2023-01-19T12:49:43.991Z,99431.41
2023-01-19T12:52:31.404Z,99421.25
2023-01-19T12:55:17.154Z,99426.72
2023-01-19T12:57:55.608Z,99424.16
2023-01-19T13:00:34.417Z,99426.78
2023-01-19T13:03:25.253Z,99438.69
2023-01-19T13:05:56.439Z,99435.13
2023-01-19T13:08:30.338Z,99437.16
2023-01-19T13:11:19.594Z,99434.00
2023-01-19T13:14:34.212Z,99431.94
2023-01-19T13:17:28.033Z,99435.56
2023-01-19T13:20:22.007Z,99432.03
2023-01-19T13:23:21.684Z,99433.63
2023-01-19T13:25:54.772Z,99443.63
2023-01-19T13:28:32.127Z,99442.69
2023-01-19T13:31:02.552Z,99442.75
2023-01-19T13:33:48.012Z,99448.44
2023-01-19T13:36:23.334Z,99448.09
2023-01-19T13:38:53.633Z,99457.13
2023-01-19T13:41:25.175Z,99446.66
2023-01-19T13:44:01.697Z,99462.66
2023-01-19T13:46:31.764Z,99460.84
2023-01-19T13:49:05.486Z,99458.94
2023-01-19T13:51:33.381Z,99456.47
2023-01-19T13:54:02.750Z,99457.13
2023-01-19T13:56:30.841Z,99473.09
2023-01-19T13:59:02.187Z,99470.97
2023-01-19T14:01:31.266Z,99481.16
2023-01-19T14:04:00.005Z,99478.41
2023-01-19T14:06:40.455Z,99476.94
2023-01-19T14:09:16.879Z,99480.56
2023-01-19T14:11:47.700Z,99486.69
2023-01-19T14:14:25.794Z,99488.41
2023-01-19T14:16:54.355Z,99488.97
2023-01-19T14:19:22.290Z,99484.44
2023-01-19T14:22:01.138Z,99492.19
2023-01-19T14:24:33.099Z,99500.94
2023-01-19T14:27:18.744Z,99499.19
2023-01-19T14:29:50.392Z,99503.34
2023-01-19T14:32:21.766Z,99505.25
2023-01-19T14:34:53.642Z,99507.97
2023-01-19T14:37:26.489Z,99512.78
2023-01-19T14:40:01.831Z,99512.28
2023-01-19T14:42:34.742Z,99522.72
2023-01-19T14:45:12.415Z,99525.22
2023-01-19T14:47:44.355Z,99523.69
2023-01-19T14:50:23.844Z,99527.47
2023-01-19T14:52:59.443Z,99537.84
2023-01-19T14:55:39.630Z,99535.38
2023-01-19T14:58:12.022Z,99528.38
2023-01-19T15:00:40.287Z,99529.81
2023-01-19T15:03:09.919Z,99533.44
2023-01-19T15:05:39.422Z,99526.69
2023-01-19T15:08:08.505Z,99535.38
2023-01-19T15:10:37.809Z,99536.97
2023-01-19T15:13:05.864Z,99541.31
2023-01-19T15:15:35.686Z,99548.31
2023-01-19T15:18:06.811Z,99539.78
2023-01-19T15:20:34.788Z,99547.44
2023-01-19T15:23:02.676Z,99556.72
2023-01-19T15:25:31.465Z,99554.66
2023-01-19T15:28:02.087Z,99563.44
2023-01-19T15:30:33.975Z,99568.19
2023-01-19T15:33:02.350Z,99567.22
2023-01-19T15:35:30.630Z,99575.84
2023-01-19T15:37:58.631Z,99580.03
2023-01-19T15:40:26.656Z,99573.84
2023-01-19T15:42:54.534Z,99571.13
2023-01-19T15:45:34.430Z,99581.78
2023-01-19T15:48:05.392Z,99575.22
2023-01-19T15:50:35.833Z,99591.88
2023-01-19T15:53:03.898Z,99587.50
2023-01-19T15:55:31.977Z,99592.88
2023-01-19T15:58:02.775Z,99588.66
2023-01-19T16:00:34.189Z,99596.84
2023-01-19T16:03:03.417Z,99598.38
2023-01-19T16:05:42.476Z,99606.91
2023-01-19T16:08:12.017Z,99607.41
2023-01-19T16:10:40.366Z,99603.66
2023-01-19T16:13:09.220Z,99605.28
2023-01-19T16:15:53.666Z,99611.91
2023-01-19T16:18:21.721Z,99609.72
2023-01-19T16:20:49.584Z,99608.03
2023-01-19T16:23:17.400Z,99613.13
2023-01-19T16:25:55.272Z,99619.91
2023-01-19T16:28:23.649Z,99626.50
2023-01-19T16:30:53.294Z,99625.50
2023-01-19T16:33:21.280Z,99626.38
2023-01-19T16:35:49.497Z,99627.75
2023-01-19T16:38:17.484Z,99625.03
2023-01-19T16:40:46.577Z,99629.28
2023-01-19T16:43:15.241Z,99634.38
2023-01-19T16:45:59.557Z,99639.34
2023-01-19T16:48:28.694Z,99645.22
2023-01-19T16:51:03.196Z,99638.84
2023-01-19T16:53:37.185Z,99644.84
2023-01-19T16:56:06.664Z,99652.28
2023-01-19T16:58:38.195Z,99659.19
2023-01-19T17:01:14.722Z,99658.81
2023-01-19T17:03:43.267Z,99661.41
2023-01-19T17:06:13.901Z,99665.38
2023-01-19T17:08:41.935Z,99667.13
2023-01-19T17:11:13.501Z,99667.25
2023-01-19T17:13:41.464Z,99670.50
2023-01-19T17:16:11.078Z,99674.72
2023-01-19T17:18:39.066Z,99679.09
2023-01-19T17:21:10.142Z,99684.03
2023-01-19T17:23:43.529Z,99686.97
2023-01-19T17:26:11.688Z,99681.38
2023-01-19T17:28:40.344Z,99690.53
2023-01-19T17:31:12.198Z,99690.38
2023-01-19T17:33:42.900Z,99691.34
2023-01-19T17:36:14.859Z,99692.16
2023-01-19T17:38:43.292Z,99701.34
2023-01-19T17:41:16.505Z,99699.81
2023-01-19T17:43:45.710Z,99706.81
2023-01-19T17:46:14.940Z,99697.00
2023-01-19T17:48:42.779Z,99704.66
2023-01-19T17:51:13.081Z,99706.63
2023-01-19T17:53:42.409Z,99715.25
2023-01-19T17:56:13.930Z,99704.69
2023-01-19T17:58:42.823Z,99704.53
2023-01-19T18:01:13.709Z,99709.66
2023-01-19T18:03:43.716Z,99710.00
2023-01-19T18:06:11.991Z,99709.63
2023-01-19T18:08:42.753Z,99717.06
2023-01-19T18:11:11.887Z,99714.38
2023-01-19T18:13:43.339Z,99711.81
2023-01-19T18:16:14.871Z,99723.94
2023-01-19T18:18:44.370Z,99721.09
2023-01-19T18:21:14.967Z,99719.25
2023-01-19T18:23:43.457Z,99729.72
2023-01-19T18:26:37.954Z,99730.81
2023-01-19T18:29:05.791Z,99728.66
2023-01-19T18:31:33.655Z,99731.41
2023-01-19T18:34:01.575Z,99732.16
2023-01-19T18:36:31.958Z,99736.91
2023-01-19T18:39:01.145Z,99731.06
2023-01-19T18:41:29.860Z,99736.50
2023-01-19T18:43:59.696Z,99738.31
2023-01-19T18:46:27.727Z,99741.09
2023-01-19T18:48:55.807Z,99736.00
2023-01-19T18:51:23.676Z,99736.84
2023-01-19T18:53:51.767Z,99748.00
2023-01-19T18:56:19.832Z,99754.25
2023-01-19T18:58:47.923Z,99748.72
2023-01-19T19:01:24.061Z,99747.13
2023-01-19T19:03:52.763Z,99754.50
2023-01-19T19:06:22.229Z,99746.78
2023-01-19T19:08:52.098Z,99750.00
2023-01-19T19:11:22.478Z,99748.25
2023-01-19T19:13:53.029Z,99743.47
2023-01-19T19:16:23.104Z,99751.16
2023-01-19T19:18:51.297Z,99754.72
2023-01-19T19:21:21.293Z,99759.34
2023-01-19T19:23:53.953Z,99764.22
2023-01-19T19:26:24.450Z,99768.19
2023-01-19T19:28:52.727Z,99772.16
2023-01-19T19:31:25.896Z,99764.22
2023-01-19T19:33:55.437Z,99767.03
2023-01-19T19:36:24.643Z,99768.50
2023-01-19T19:38:52.482Z,99768.63
2023-01-19T19:41:24.233Z,99772.81
2023-01-19T19:43:52.419Z,99781.84
2023-01-19T19:46:24.176Z,99774.97
2023-01-19T19:48:53.660Z,99780.53
2023-01-19T19:51:25.302Z,99775.75
2023-01-19T19:53:56.641Z,99768.72
2023-01-19T19:56:27.955Z,99781.03
2023-01-19T19:58:58.956Z,99782.41
2023-01-19T20:01:33.513Z,99782.50
2023-01-19T20:04:06.747Z,99777.59
2023-01-19T20:06:39.729Z,99780.81
2023-01-19T20:09:10.784Z,99782.72
2023-01-19T20:11:39.943Z,99783.44
2023-01-19T20:14:10.759Z,99795.63
2023-01-19T20:16:40.901Z,99798.19
2023-01-19T20:19:08.861Z,99807.59
2023-01-19T20:21:41.655Z,99806.13
2023-01-19T20:24:13.831Z,99812.69
2023-01-19T20:26:45.253Z,99816.66
2023-01-19T20:29:13.241Z,99807.53
2023-01-19T20:31:46.820Z,99821.31
2023-01-19T20:34:17.987Z,99826.56
2023-01-19T20:36:49.747Z,99825.56
2023-01-19T20:39:18.652Z,99838.03
2023-01-19T20:41:48.498Z,99835.44
2023-01-19T20:44:20.102Z,99834.97
2023-01-19T20:46:53.395Z,99837.34
2023-01-19T20:49:22.794Z,99838.28
2023-01-19T20:51:51.893Z,99844.00
2023-01-19T20:54:24.486Z,99850.00
2023-01-19T20:56:52.559Z,99846.19
2023-01-19T20:59:20.394Z,99854.69
2023-01-19T21:01:50.338Z,99857.09
2023-01-19T21:04:18.885Z,99863.28
2023-01-19T21:06:47.197Z,99859.94
2023-01-19T21:09:14.960Z,99861.66
2023-01-19T21:11:42.727Z,99863.28
2023-01-19T21:14:10.703Z,99863.28
2023-01-19T21:16:38.830Z,99865.03
2023-01-19T21:19:08.045Z,99863.13
2023-01-19T21:21:36.138Z,99865.81
2023-01-19T21:24:04.761Z,99866.84
2023-01-19T21:26:33.560Z,99876.88
2023-01-19T21:29:04.102Z,99876.09
2023-01-19T21:31:32.037Z,99883.78
2023-01-19T21:34:00.043Z,99874.97
2023-01-19T21:36:29.222Z,99888.06
2023-01-19T21:39:00.388Z,99886.75
2023-01-19T21:41:30.094Z,99899.53
2023-01-19T21:44:00.132Z,99899.00
2023-01-19T21:46:29.515Z,99908.44
2023-01-19T21:48:59.019Z,99907.13
2023-01-19T21:51:27.212Z,99907.13
2023-01-19T21:53:59.427Z,99910.34
2023-01-19T21:56:29.177Z,99907.53
2023-01-19T21:58:59.475Z,99915.22
2023-01-19T22:01:27.548Z,99914.59
2023-01-19T22:03:57.493Z,99921.72
2023-01-19T22:06:27.333Z,99911.97
2023-01-19T22:08:58.304Z,99917.56
2023-01-19T22:11:27.270Z,99921.41
2023-01-19T22:13:55.126Z,99921.72
2023-01-19T22:16:23.650Z,99921.88
2023-01-19T22:18:54.116Z,99922.16
2023-01-19T22:21:27.009Z,99916.75
2023-01-19T22:23:59.151Z,99923.84
2023-01-19T22:26:28.781Z,99921.06
2023-01-19T22:28:59.420Z,99930.09
2023-01-19T22:31:29.524Z,99929.53
2023-01-19T22:33:57.749Z,99928.66
2023-01-19T22:36:28.065Z,99930.75
2023-01-19T22:39:00.189Z,99932.03
2023-01-19T22:41:33.039Z,99936.53
2023-01-19T22:44:03.321Z,99957.25
2023-01-19T22:46:33.986Z,99953.78
2023-01-19T22:49:02.797Z,99959.69
2023-01-19T22:51:33.443Z,99947.22
2023-01-19T22:54:03.239Z,99956.50
2023-01-19T22:56:33.334Z,99955.00
2023-01-19T22:59:02.362Z,99964.13
2023-01-19T23:01:33.677Z,99956.16
2023-01-19T23:04:19.198Z,99957.75
